Time;durP1;ratioP1;P1;durP2;ratioP2;P2;SDS_P1;SDS_P2;PMS_P1;PMS_P2;Temp;Humidity;BMP_temperature;BMP_pressure;BME280_temperature;BME280_humidity;BME280_pressure;Samples;Min_cycle;Max_cycle;Signal;HPM_P1;HPM_P2
2023/01/28 00:00:20;;;;;;;77.13;30.70;;;;;;;;;;5011983;28;20370;-68
2023/01/28 00:02:47;;;;;;;75.03;28.58;;;;;;;;;;5008902;28;20345;-68
2023/01/28 00:05:12;;;;;;;76.00;28.60;;;;;;;;;;5009393;28;20037;-68
2023/01/28 00:07:37;;;;;;;76.07;28.70;;;;;;;;;;5009652;28;20415;-68
2023/01/28 00:10:02;;;;;;;73.23;27.50;;;;;;;;;;5026217;28;20283;-68
2023/01/28 00:12:34;;;;;;;72.22;28.10;;;;;;;;;;5009128;28;20121;-69
2023/01/28 00:14:59;;;;;;;68.38;26.58;;;;;;;;;;5012405;28;20053;-69
2023/01/28 00:17:25;;;;;;;73.03;27.88;;;;;;;;;;5012055;28;20053;-68
2023/01/28 00:19:50;;;;;;;74.63;28.30;;;;;;;;;;5012038;28;20037;-69
2023/01/28 00:24:59;;;;;;;75.57;28.88;;;;;;;;;;5012115;28;20258;-69
2023/01/28 00:27:24;;;;;;;74.03;29.03;;;;;;;;;;5011445;28;20038;-69
2023/01/28 00:29:50;;;;;;;79.20;28.90;;;;;;;;;;5011455;28;20029;-69
2023/01/28 00:32:15;;;;;;;80.53;29.47;;;;;;;;;;5009037;28;20395;-69
2023/01/28 00:34:40;;;;;;;79.87;29.20;;;;;;;;;;5010836;28;20263;-69
2023/01/28 00:37:05;;;;;;;83.70;29.90;;;;;;;;;;5010044;28;20618;-69
2023/01/28 00:39:31;;;;;;;86.70;31.00;;;;;;;;;;5011229;28;20350;-69
2023/01/28 00:41:56;;;;;;;80.55;28.63;;;;;;;;;;5011396;28;20606;-69
2023/01/28 00:44:21;;;;;;;90.18;29.02;;;;;;;;;;5009811;28;20503;-69
2023/01/28 00:46:47;;;;;;;70.93;27.50;;;;;;;;;;5010753;28;20029;-69
2023/01/28 00:49:12;;;;;;;70.53;28.57;;;;;;;;;;5010912;28;20034;-67
2023/01/28 00:51:37;;;;;;;74.50;27.60;;;;;;;;;;5010062;28;20267;-68
2023/01/28 00:54:02;;;;;;;68.57;26.43;;;;;;;;;;5024924;28;20302;-69
2023/01/28 00:56:28;;;;;;;66.72;26.38;;;;;;;;;;5024514;28;20033;-68
2023/01/28 00:58:53;;;;;;;71.32;27.98;;;;;;;;;;5008305;28;20096;-68
2023/01/28 01:01:20;;;;;;;70.50;27.67;;;;;;;;;;5007699;28;20032;-69
2023/01/28 01:03:45;;;;;;;72.68;27.20;;;;;;;;;;5023251;28;20065;-69
2023/01/28 01:06:11;;;;;;;64.43;25.45;;;;;;;;;;5009610;28;20119;-69
2023/01/28 01:08:41;;;;;;;67.90;25.95;;;;;;;;;;5008036;28;20030;-69
2023/01/28 01:11:07;;;;;;;67.10;26.30;;;;;;;;;;5005845;28;20022;-69
2023/01/28 01:13:33;;;;;;;64.13;26.70;;;;;;;;;;5007087;28;20103;-69
2023/01/28 01:16:05;;;;;;;65.70;25.20;;;;;;;;;;5008672;28;20026;-68
2023/01/28 01:18:30;;;;;;;65.68;26.17;;;;;;;;;;5007981;28;20345;-70
2023/01/28 01:23:39;;;;;;;70.88;28.60;;;;;;;;;;5007475;28;20507;-68
2023/01/28 01:26:05;;;;;;;69.13;26.95;;;;;;;;;;5009019;28;20030;-69
2023/01/28 01:31:16;;;;;;;70.38;27.38;;;;;;;;;;5010071;28;20057;-69
2023/01/28 01:36:25;;;;;;;66.82;26.63;;;;;;;;;;5009746;28;20068;-67
2023/01/28 01:38:54;;;;;;;65.23;27.87;;;;;;;;;;5009634;28;20057;-69
2023/01/28 01:41:27;;;;;;;76.20;28.67;;;;;;;;;;5009876;28;20334;-69
2023/01/28 01:44:00;;;;;;;73.68;28.65;;;;;;;;;;5011704;28;20026;-70
2023/01/28 01:46:40;;;;;;;71.43;27.92;;;;;;;;;;5012734;28;20056;-70
2023/01/28 01:49:20;;;;;;;78.30;30.67;;;;;;;;;;5011860;28;20112;-70
2023/01/28 01:51:48;;;;;;;72.90;29.20;;;;;;;;;;5013488;28;20040;-70
2023/01/28 01:54:13;;;;;;;77.97;31.25;;;;;;;;;;5010266;28;20121;-70
2023/01/28 01:56:41;;;;;;;70.95;29.17;;;;;;;;;;5013257;28;20053;-70
2023/01/28 01:59:08;;;;;;;73.82;32.05;;;;;;;;;;5013189;28;20444;-70
2023/01/28 02:01:34;;;;;;;76.43;31.02;;;;;;;;;;5027017;28;20034;-70
2023/01/28 02:04:14;;;;;;;77.33;30.93;;;;;;;;;;5025653;28;20030;-70
2023/01/28 02:06:40;;;;;;;79.05;30.88;;;;;;;;;;5025655;28;20034;-69
2023/01/28 02:09:06;;;;;;;82.60;33.05;;;;;;;;;;5012159;28;20030;-70
2023/01/28 02:11:33;;;;;;;83.15;34.03;;;;;;;;;;5011172;28;20088;-70
2023/01/28 02:14:01;;;;;;;89.90;37.30;;;;;;;;;;5012089;28;20125;-70
2023/01/28 02:16:26;;;;;;;92.72;36.03;;;;;;;;;;5010226;28;20144;-70
2023/01/28 02:18:52;;;;;;;90.43;36.55;;;;;;;;;;5004939;28;20030;-70
2023/01/28 02:21:26;;;;;;;84.30;34.17;;;;;;;;;;5011455;28;20025;-70
2023/01/28 02:24:00;;;;;;;83.47;34.67;;;;;;;;;;5025742;28;20056;-70
2023/01/28 02:26:25;;;;;;;82.13;32.65;;;;;;;;;;5026193;28;20026;-70
2023/01/28 02:28:53;;;;;;;78.00;32.92;;;;;;;;;;5013170;28;20083;-70
2023/01/28 02:31:18;;;;;;;79.82;32.47;;;;;;;;;;5011982;28;20045;-70
2023/01/28 02:33:49;;;;;;;75.37;32.00;;;;;;;;;;5009615;28;20027;-70
2023/01/28 02:36:22;;;;;;;81.03;33.90;;;;;;;;;;5012955;28;20034;-70
2023/01/28 02:38:49;;;;;;;86.75;32.03;;;;;;;;;;5011595;28;20088;-69
2023/01/28 02:41:21;;;;;;;73.78;30.08;;;;;;;;;;5010999;28;20133;-70
2023/01/28 02:43:47;;;;;;;73.57;31.42;;;;;;;;;;5010275;28;20510;-70
2023/01/28 02:51:58;;;;;;;73.07;30.60;;;;;;;;;;5011146;28;20052;-69
2023/01/28 02:54:42;;;;;;;74.63;31.20;;;;;;;;;;5012160;28;20133;-70
2023/01/28 02:57:15;;;;;;;74.53;30.75;;;;;;;;;;5011354;28;20129;-70
2023/01/28 02:59:49;;;;;;;67.95;30.00;;;;;;;;;;5027314;28;20088;-70
2023/01/28 03:02:20;;;;;;;66.20;28.30;;;;;;;;;;5013313;28;20030;-70
2023/01/28 03:04:48;;;;;;;65.47;28.40;;;;;;;;;;5013600;28;20040;-70
2023/01/28 03:07:15;;;;;;;66.13;27.63;;;;;;;;;;5014586;28;20498;-69
2023/01/28 03:09:42;;;;;;;62.22;27.60;;;;;;;;;;5015201;28;20041;-70
2023/01/28 03:38:21;;;;;;;65.05;25.70;;;;;;;;;;5014536;28;20153;-70
2023/01/28 03:40:49;;;;;;;57.78;24.98;;;;;;;;;;5011663;28;20038;-70
2023/01/28 03:46:38;;;;;;;64.60;25.40;;;;;;;;;;5015512;28;20031;-70
2023/01/28 03:49:03;;;;;;;63.90;25.85;;;;;;;;;;5016663;28;20037;-70
2023/01/28 03:51:28;;;;;;;64.60;24.80;;;;;;;;;;5013550;28;20029;-69
2023/01/28 03:53:54;;;;;;;59.15;25.60;;;;;;;;;;5007052;28;20031;-70
2023/01/28 03:56:23;;;;;;;61.30;25.57;;;;;;;;;;5014521;28;20112;-70
2023/01/28 03:58:52;;;;;;;60.25;25.35;;;;;;;;;;5013662;28;20345;-69
2023/01/28 04:01:18;;;;;;;59.20;25.48;;;;;;;;;;5014660;28;20036;-70
2023/01/28 04:03:44;;;;;;;66.45;24.35;;;;;;;;;;5014737;28;20104;-70
2023/01/28 04:06:09;;;;;;;65.20;24.47;;;;;;;;;;5014973;28;20037;-70
2023/01/28 04:08:34;;;;;;;61.92;24.30;;;;;;;;;;5014452;28;20321;-70
2023/01/28 04:11:14;;;;;;;58.55;23.83;;;;;;;;;;5012867;28;20116;-70
2023/01/28 04:13:40;;;;;;;57.95;23.60;;;;;;;;;;5026216;28;20052;-70
2023/01/28 04:16:06;;;;;;;60.40;23.50;;;;;;;;;;5027015;28;20030;-70
2023/01/28 04:18:31;;;;;;;55.38;23.63;;;;;;;;;;5010269;28;20120;-70
2023/01/28 04:20:56;;;;;;;59.08;23.48;;;;;;;;;;5011941;28;20022;-70
2023/01/28 04:23:21;;;;;;;61.43;22.93;;;;;;;;;;5012824;28;20101;-70
2023/01/28 04:25:49;;;;;;;57.97;22.67;;;;;;;;;;5007770;28;20030;-70
2023/01/28 04:28:14;;;;;;;59.75;23.63;;;;;;;;;;5011651;28;20029;-70
2023/01/28 04:30:39;;;;;;;61.42;23.65;;;;;;;;;;5012826;28;20113;-70
2023/01/28 04:33:04;;;;;;;57.00;22.77;;;;;;;;;;5011645;28;20033;-70
2023/01/28 04:35:30;;;;;;;54.17;22.17;;;;;;;;;;5012682;28;20072;-70
2023/01/28 04:37:55;;;;;;;56.40;22.17;;;;;;;;;;5013707;28;20287;-70
2023/01/28 04:40:20;;;;;;;53.90;22.23;;;;;;;;;;5012892;28;20340;-70
2023/01/28 04:42:51;;;;;;;55.67;21.43;;;;;;;;;;5027365;28;20038;-69
2023/01/28 04:45:17;;;;;;;59.13;22.45;;;;;;;;;;5013132;28;20524;-70
2023/01/28 04:47:42;;;;;;;58.63;22.57;;;;;;;;;;5013030;28;20034;-71
2023/01/28 04:50:07;;;;;;;58.22;23.55;;;;;;;;;;5030379;28;20648;-70
2023/01/28 04:52:33;;;;;;;57.97;22.63;;;;;;;;;;5010590;28;20535;-70
2023/01/28 04:54:59;;;;;;;58.47;21.10;;;;;;;;;;5010621;28;20488;-70
2023/01/28 04:57:25;;;;;;;60.40;22.38;;;;;;;;;;5011885;28;20352;-70
2023/01/28 04:59:50;;;;;;;65.17;22.77;;;;;;;;;;5013373;28;20732;-70
2023/01/28 05:02:15;;;;;;;59.95;22.50;;;;;;;;;;5009049;28;20286;-70
2023/01/28 05:04:41;;;;;;;59.50;22.10;;;;;;;;;;5012139;28;20034;-70
2023/01/28 05:07:06;;;;;;;59.97;21.87;;;;;;;;;;5027879;28;20386;-70
2023/01/28 05:09:31;;;;;;;68.47;21.85;;;;;;;;;;5013397;28;20764;-70
2023/01/28 05:11:56;;;;;;;64.23;22.13;;;;;;;;;;5012181;28;20052;-70
2023/01/28 05:14:40;;;;;;;61.77;21.27;;;;;;;;;;5012849;28;20295;-70
2023/01/28 05:17:06;;;;;;;74.25;21.27;;;;;;;;;;5028720;28;20356;-70
2023/01/28 05:19:31;;;;;;;56.47;22.40;;;;;;;;;;5012698;28;20088;-70
2023/01/28 05:21:56;;;;;;;74.03;23.07;;;;;;;;;;5008536;28;20531;-70
2023/01/28 05:24:21;;;;;;;63.60;21.43;;;;;;;;;;5010827;28;20293;-70
2023/01/28 05:26:47;;;;;;;73.67;21.63;;;;;;;;;;5008983;28;20124;-70
2023/01/28 05:29:12;;;;;;;75.03;22.07;;;;;;;;;;5010151;28;20775;-70
2023/01/28 05:31:37;;;;;;;73.60;22.30;;;;;;;;;;5025616;28;20346;-71
2023/01/28 05:34:02;;;;;;;75.00;23.10;;;;;;;;;;5012967;28;20815;-69
2023/01/28 05:36:28;;;;;;;86.57;21.47;;;;;;;;;;5011159;28;20336;-69
2023/01/28 05:38:53;;;;;;;71.72;23.52;;;;;;;;;;5012541;28;20263;-70
2023/01/28 05:41:18;;;;;;;80.38;21.88;;;;;;;;;;5010799;28;20075;-70
2023/01/28 05:43:43;;;;;;;76.17;23.33;;;;;;;;;;5012786;28;20022;-70
2023/01/28 05:46:09;;;;;;;68.90;22.13;;;;;;;;;;5011561;28;20369;-70
2023/01/28 05:48:34;;;;;;;71.57;23.30;;;;;;;;;;5013033;28;20280;-70
2023/01/28 05:50:59;;;;;;;68.13;22.60;;;;;;;;;;5011664;28;20021;-70
2023/01/28 05:53:25;;;;;;;74.07;23.25;;;;;;;;;;5011351;28;20309;-70
2023/01/28 05:55:50;;;;;;;77.93;23.38;;;;;;;;;;5011132;28;20033;-70
2023/01/28 05:58:16;;;;;;;69.63;21.83;;;;;;;;;;5010764;28;20807;-69
2023/01/28 06:00:42;;;;;;;64.85;21.02;;;;;;;;;;5011493;28;20029;-70
2023/01/28 06:03:07;;;;;;;68.30;19.75;;;;;;;;;;5010779;28;20018;-70
2023/01/28 06:05:51;;;;;;;58.22;19.42;;;;;;;;;;5008766;28;20034;-70
2023/01/28 06:08:16;;;;;;;59.80;20.52;;;;;;;;;;5006568;28;20045;-69
2023/01/28 06:10:41;;;;;;;58.60;20.10;;;;;;;;;;5010116;28;20107;-70
2023/01/28 06:13:06;;;;;;;67.25;22.23;;;;;;;;;;4999963;28;20777;-70
2023/01/28 06:15:32;;;;;;;63.70;20.13;;;;;;;;;;5004383;28;20038;-70
2023/01/28 06:17:58;;;;;;;61.78;21.58;;;;;;;;;;5006411;28;20314;-70
2023/01/28 06:20:23;;;;;;;66.50;20.70;;;;;;;;;;5006321;28;20030;-70
2023/01/28 06:22:51;;;;;;;62.40;20.30;;;;;;;;;;5007089;28;20026;-70
2023/01/28 06:25:17;;;;;;;65.70;22.88;;;;;;;;;;5004846;28;20470;-70
2023/01/28 06:27:42;;;;;;;72.30;22.48;;;;;;;;;;4999685;28;20543;-70
2023/01/28 06:30:26;;;;;;;56.20;20.77;;;;;;;;;;5002618;28;20033;-69
2023/01/28 06:33:10;;;;;;;60.53;21.15;;;;;;;;;;5018535;28;20182;-70
2023/01/28 06:35:35;;;;;;;66.20;21.48;;;;;;;;;;5008988;28;20026;-69
2023/01/28 06:38:03;;;;;;;66.00;21.65;;;;;;;;;;5023642;28;20772;-70
2023/01/28 06:40:28;;;;;;;63.58;21.80;;;;;;;;;;5011216;28;20076;-69
2023/01/28 06:42:53;;;;;;;62.67;21.17;;;;;;;;;;5010990;28;20037;-70
2023/01/28 06:45:19;;;;;;;57.93;21.33;;;;;;;;;;5008626;28;20029;-70
2023/01/28 06:47:44;;;;;;;63.30;20.07;;;;;;;;;;5006982;28;20773;-69
2023/01/28 06:50:09;;;;;;;55.28;19.83;;;;;;;;;;5009958;28;20747;-70
2023/01/28 06:52:35;;;;;;;59.80;19.75;;;;;;;;;;4992083;28;20036;-70
2023/01/28 06:55:00;;;;;;;57.27;20.43;;;;;;;;;;5010679;28;20108;-70
2023/01/28 06:57:25;;;;;;;67.95;20.65;;;;;;;;;;5005963;28;20305;-69
2023/01/28 07:00:09;;;;;;;54.47;20.13;;;;;;;;;;5009004;28;20060;-69
2023/01/28 07:02:35;;;;;;;63.95;22.33;;;;;;;;;;5023373;28;20088;-69
2023/01/28 07:05:01;;;;;;;65.82;21.63;;;;;;;;;;5008513;28;20431;-70
2023/01/28 07:07:26;;;;;;;73.97;23.02;;;;;;;;;;5012245;28;20080;-69
2023/01/28 07:09:52;;;;;;;78.55;22.88;;;;;;;;;;5006775;28;20037;-69
2023/01/28 07:12:17;;;;;;;183.32;34.78;;;;;;;;;;5008428;28;20049;-70
2023/01/28 07:14:42;;;;;;;83.77;24.20;;;;;;;;;;5010450;28;20038;-67
2023/01/28 07:17:08;;;;;;;373.00;52.80;;;;;;;;;;5020640;28;20354;-67
2023/01/28 07:19:33;;;;;;;164.57;31.87;;;;;;;;;;5006249;28;20641;-69
2023/01/28 07:21:59;;;;;;;224.70;36.63;;;;;;;;;;5006555;28;20284;-70
2023/01/28 07:24:25;;;;;;;397.17;54.75;;;;;;;;;;5022458;28;20029;-70
2023/01/28 07:26:50;;;;;;;92.85;23.45;;;;;;;;;;5010168;28;20022;-71
2023/01/28 07:29:15;;;;;;;97.57;24.57;;;;;;;;;;5024783;28;20038;-69
2023/01/28 07:31:41;;;;;;;92.75;25.55;;;;;;;;;;5004956;28;20641;-69
2023/01/28 07:34:07;;;;;;;85.17;23.97;;;;;;;;;;5001717;28;20495;-68
2023/01/28 07:36:32;;;;;;;78.63;22.88;;;;;;;;;;5005175;28;20714;-68
2023/01/28 07:38:58;;;;;;;80.03;23.73;;;;;;;;;;5006966;28;20048;-70
2023/01/28 07:41:23;;;;;;;76.80;21.37;;;;;;;;;;5007033;28;20033;-70
2023/01/28 07:43:48;;;;;;;68.97;21.13;;;;;;;;;;5024166;28;20345;-69
2023/01/28 07:46:14;;;;;;;66.60;20.20;;;;;;;;;;5009458;28;20454;-70
2023/01/28 07:48:39;;;;;;;61.70;21.40;;;;;;;;;;5006853;28;20025;-69
2023/01/28 07:51:04;;;;;;;59.57;19.77;;;;;;;;;;5022471;28;20026;-70
2023/01/28 07:53:29;;;;;;;61.10;20.33;;;;;;;;;;5005754;28;20080;-66
2023/01/28 07:55:59;;;;;;;74.72;22.42;;;;;;;;;;5022806;28;20871;-70
2023/01/28 07:58:25;;;;;;;69.00;21.35;;;;;;;;;;5006581;28;20778;-71
2023/01/28 08:00:50;;;;;;;83.05;22.70;;;;;;;;;;5002890;28;20034;-71
2023/01/28 08:03:16;;;;;;;85.32;24.55;;;;;;;;;;5000532;28;20026;-71
2023/01/28 08:05:45;;;;;;;85.40;24.33;;;;;;;;;;5002418;28;20034;-71
2023/01/28 08:08:11;;;;;;;77.60;23.77;;;;;;;;;;5008511;28;20290;-71
2023/01/28 08:10:36;;;;;;;121.65;27.02;;;;;;;;;;5008040;28;20029;-71
2023/01/28 08:13:02;;;;;;;66.45;21.35;;;;;;;;;;5009059;28;20352;-71
2023/01/28 08:15:28;;;;;;;64.38;22.90;;;;;;;;;;5005038;28;20125;-71
2023/01/28 08:17:54;;;;;;;74.53;23.95;;;;;;;;;;5007712;28;20025;-71
2023/01/28 08:20:20;;;;;;;60.90;21.27;;;;;;;;;;5005814;28;20432;-70
2023/01/28 08:22:45;;;;;;;65.57;20.95;;;;;;;;;;5009554;28;20041;-71
2023/01/28 08:25:10;;;;;;;55.20;19.30;;;;;;;;;;5005811;28;20488;-71
2023/01/28 08:27:35;;;;;;;56.87;20.30;;;;;;;;;;5023887;28;20283;-71
2023/01/28 08:30:01;;;;;;;52.17;20.45;;;;;;;;;;5006906;28;20088;-70
2023/01/28 08:32:44;;;;;;;56.13;20.17;;;;;;;;;;5002620;28;20103;-70
2023/01/28 08:35:10;;;;;;;53.00;20.55;;;;;;;;;;5018597;28;20025;-70
2023/01/28 08:37:36;;;;;;;56.40;20.08;;;;;;;;;;5010291;28;20036;-70
2023/01/28 08:40:01;;;;;;;56.97;21.15;;;;;;;;;;5007799;28;20053;-70
2023/01/28 08:42:26;;;;;;;52.17;18.77;;;;;;;;;;5008180;28;20068;-70
2023/01/28 08:44:52;;;;;;;54.00;21.10;;;;;;;;;;5022583;28;20479;-70
2023/01/28 08:47:17;;;;;;;58.10;21.17;;;;;;;;;;5007119;28;20536;-71
2023/01/28 08:49:42;;;;;;;57.95;21.15;;;;;;;;;;5007992;28;20282;-70
2023/01/28 08:54:52;;;;;;;50.95;18.63;;;;;;;;;;5004984;28;20478;-70
2023/01/28 08:57:17;;;;;;;42.03;17.33;;;;;;;;;;5008030;28;20029;-71
2023/01/28 08:59:45;;;;;;;45.47;17.90;;;;;;;;;;5007550;28;20413;-71
2023/01/28 09:02:14;;;;;;;43.78;16.58;;;;;;;;;;5005308;28;20279;-70
2023/01/28 09:04:39;;;;;;;46.33;17.30;;;;;;;;;;5001646;28;20025;-69
2023/01/28 09:07:04;;;;;;;55.10;19.33;;;;;;;;;;5006608;28;20079;-68
2023/01/28 09:09:30;;;;;;;48.63;19.13;;;;;;;;;;5008244;28;20041;-70
2023/01/28 09:11:58;;;;;;;48.05;17.77;;;;;;;;;;5020801;28;20049;-70
2023/01/28 09:14:23;;;;;;;34.78;14.85;;;;;;;;;;5007891;28;20050;-71
2023/01/28 09:16:49;;;;;;;55.40;21.60;;;;;;;;;;5023060;28;20109;-70
2023/01/28 09:19:14;;;;;;;58.65;21.52;;;;;;;;;;5000706;28;20030;-68
2023/01/28 09:21:39;;;;;;;57.33;22.93;;;;;;;;;;5006811;28;20152;-70
2023/01/28 09:24:05;;;;;;;58.53;22.37;;;;;;;;;;5019488;28;20061;-71
2023/01/28 09:26:33;;;;;;;64.45;24.42;;;;;;;;;;5007896;28;20290;-70
2023/01/28 09:28:58;;;;;;;62.17;24.92;;;;;;;;;;5008129;28;20029;-71
2023/01/28 09:31:23;;;;;;;66.28;23.70;;;;;;;;;;5004847;28;20060;-71
2023/01/28 09:33:55;;;;;;;58.05;21.33;;;;;;;;;;5007481;28;20077;-69
2023/01/28 09:36:20;;;;;;;51.42;21.00;;;;;;;;;;5022935;28;20060;-76
2023/01/28 09:38:46;;;;;;;54.63;21.40;;;;;;;;;;5004943;28;20660;-75
2023/01/28 09:41:20;;;;;;;65.60;24.77;;;;;;;;;;5005012;28;20103;-75
2023/01/28 09:44:05;;;;;;;68.43;24.98;;;;;;;;;;5004435;28;20479;-75
2023/01/28 09:46:32;;;;;;;68.75;22.95;;;;;;;;;;5004635;28;20030;-75
2023/01/28 09:49:00;;;;;;;62.15;22.52;;;;;;;;;;5009534;28;20046;-75
2023/01/28 09:51:39;;;;;;;67.95;24.30;;;;;;;;;;5008122;28;20108;-75
2023/01/28 09:54:11;;;;;;;64.50;22.17;;;;;;;;;;5006647;28;20121;-75
2023/01/28 09:56:40;;;;;;;70.25;23.88;;;;;;;;;;5006275;28;20104;-76
2023/01/28 09:59:20;;;;;;;75.68;24.60;;;;;;;;;;5006498;28;20439;-75
2023/01/28 10:01:56;;;;;;;74.45;25.38;;;;;;;;;;5004664;28;20037;-76
2023/01/28 10:04:22;;;;;;;58.33;22.25;;;;;;;;;;5015122;28;20467;-75
2023/01/28 10:07:00;;;;;;;61.72;22.00;;;;;;;;;;5003877;28;20021;-75
2023/01/28 10:09:26;;;;;;;56.50;22.07;;;;;;;;;;5007598;28;20119;-77
2023/01/28 10:11:57;;;;;;;71.83;23.30;;;;;;;;;;5004745;28;20287;-77
2023/01/28 10:14:41;;;;;;;79.47;27.38;;;;;;;;;;5007350;28;20042;-77
2023/01/28 10:17:13;;;;;;;71.60;23.73;;;;;;;;;;5019355;28;20060;-76
2023/01/28 10:19:46;;;;;;;70.70;24.35;;;;;;;;;;5004680;28;20030;-76
2023/01/28 10:22:31;;;;;;;66.05;22.90;;;;;;;;;;5003780;28;20491;-76
2023/01/28 10:25:05;;;;;;;69.78;25.67;;;;;;;;;;5005597;28;20064;-75
2023/01/28 10:27:31;;;;;;;73.97;26.10;;;;;;;;;;5001582;28;20029;-75
2023/01/28 10:30:20;;;;;;;73.28;25.45;;;;;;;;;;5005526;28;20026;-75
2023/01/28 10:32:50;;;;;;;147.35;28.98;;;;;;;;;;5004259;28;20605;-75
2023/01/28 10:35:15;;;;;;;;;;;;;;;;;;5007728;28;20025;-75
2023/01/28 10:37:40;;;;;;;60.40;22.40;;;;;;;;;;5002976;28;20510;-76
2023/01/28 10:40:06;;;;;;;72.75;24.27;;;;;;;;;;5001950;28;20045;-76
2023/01/28 10:42:33;;;;;;;69.05;24.45;;;;;;;;;;5004422;28;20042;-75
2023/01/28 10:45:01;;;;;;;62.05;23.67;;;;;;;;;;5006356;28;20029;-70
2023/01/28 10:47:39;;;;;;;66.82;23.48;;;;;;;;;;5000676;28;20096;-70
2023/01/28 10:50:04;;;;;;;64.43;23.65;;;;;;;;;;5019147;28;20037;-70
2023/01/28 10:52:30;;;;;;;71.30;24.85;;;;;;;;;;5003856;28;20407;-70
2023/01/28 10:54:59;;;;;;;77.93;27.30;;;;;;;;;;5007418;28;20056;-71
2023/01/28 10:57:24;;;;;;;69.93;24.60;;;;;;;;;;5002700;28;20068;-71
2023/01/28 10:59:50;;;;;;;81.38;27.65;;;;;;;;;;5003580;28;20053;-70
2023/01/28 11:02:25;;;;;;;82.80;26.38;;;;;;;;;;5002800;28;20025;-70
2023/01/28 11:05:04;;;;;;;79.07;28.15;;;;;;;;;;5006829;28;20028;-70
2023/01/28 11:07:29;;;;;;;;;;;;;;;;;;5006992;28;20062;-70
2023/01/28 11:09:55;;;;;;;76.25;26.38;;;;;;;;;;5000117;28;19924;-76
2023/01/28 11:12:21;;;;;;;99.47;33.83;;;;;;;;;;5003287;28;20022;-75
2023/01/28 11:15:05;;;;;;;103.28;34.30;;;;;;;;;;5003732;28;20049;-75
2023/01/28 11:17:38;;;;;;;124.70;38.63;;;;;;;;;;5007757;28;20033;-75
2023/01/28 11:20:17;;;;;;;122.88;38.92;;;;;;;;;;5003837;28;20148;-74
2023/01/28 11:22:42;;;;;;;110.35;34.22;;;;;;;;;;5007577;28;20030;-75
2023/01/28 11:25:26;;;;;;;132.48;41.40;;;;;;;;;;5008612;28;20164;-75
2023/01/28 11:27:52;;;;;;;103.45;32.75;;;;;;;;;;5009774;28;20041;-74
2023/01/28 11:30:21;;;;;;;88.43;30.38;;;;;;;;;;5022229;28;20088;-75
2023/01/28 11:32:54;;;;;;;87.35;30.33;;;;;;;;;;5005810;28;20030;-75
2023/01/28 11:38:16;;;;;;;81.80;28.75;;;;;;;;;;5010562;28;20052;-75
2023/01/28 11:40:48;;;;;;;84.40;30.63;;;;;;;;;;5008272;28;20038;-74
2023/01/28 11:43:13;;;;;;;75.88;26.92;;;;;;;;;;5007860;28;20506;-75
2023/01/28 11:45:42;;;;;;;77.10;26.63;;;;;;;;;;5009291;28;20025;-75
2023/01/28 11:48:14;;;;;;;75.25;27.33;;;;;;;;;;5022870;28;20282;-75
2023/01/28 11:50:59;;;;;;;69.28;25.25;;;;;;;;;;5009137;28;20028;-74
2023/01/28 11:53:45;;;;;;;69.32;24.42;;;;;;;;;;4981586;28;20038;-75
2023/01/28 11:56:17;;;;;;;74.90;26.35;;;;;;;;;;5007710;28;20124;-75
2023/01/28 11:58:55;;;;;;;66.70;25.58;;;;;;;;;;5006212;28;20116;-75
2023/01/28 12:01:39;;;;;;;65.68;25.58;;;;;;;;;;5007305;28;20057;-74
2023/01/28 12:04:23;;;;;;;61.17;25.05;;;;;;;;;;5023634;28;20029;-73
2023/01/28 12:07:00;;;;;;;58.50;22.85;;;;;;;;;;5008433;28;20032;-75
2023/01/28 12:09:28;;;;;;;58.50;22.67;;;;;;;;;;5004444;28;20057;-74
2023/01/28 12:12:12;;;;;;;60.40;23.45;;;;;;;;;;5005042;28;20093;-75
2023/01/28 12:14:56;;;;;;;65.72;25.58;;;;;;;;;;5006139;28;20527;-76
2023/01/28 12:17:30;;;;;;;58.75;22.80;;;;;;;;;;5006358;28;20034;-75
2023/01/28 12:20:04;;;;;;;56.92;22.83;;;;;;;;;;5004530;28;20037;-73
2023/01/28 12:22:41;;;;;;;61.00;24.67;;;;;;;;;;5007446;28;20030;-74
2023/01/28 12:25:27;;;;;;;70.05;27.85;;;;;;;;;;5006287;28;20029;-72
2023/01/28 12:27:59;;;;;;;65.50;25.00;;;;;;;;;;5004820;28;20436;-74
2023/01/28 12:30:39;;;;;;;63.03;24.90;;;;;;;;;;5017624;28;20040;-74
2023/01/28 12:33:14;;;;;;;53.25;23.13;;;;;;;;;;5002825;28;20022;-74
2023/01/28 12:36:14;;;;;;;61.08;23.40;;;;;;;;;;5009653;28;20026;-74
2023/01/28 12:38:58;;;;;;;66.40;27.05;;;;;;;;;;4965709;28;20097;-75
2023/01/28 12:41:33;;;;;;;65.82;25.30;;;;;;;;;;4964370;28;20039;-74
2023/01/28 12:46:51;;;;;;;54.42;21.63;;;;;;;;;;4965018;28;20041;-74
2023/01/28 12:49:30;;;;;;;53.97;22.25;;;;;;;;;;4946537;28;20030;-76
2023/01/28 12:52:02;;;;;;;55.60;22.25;;;;;;;;;;4961074;28;20039;-76
2023/01/28 12:54:40;;;;;;;62.72;26.02;;;;;;;;;;4961440;28;20054;-71
2023/01/28 12:57:07;;;;;;;58.83;23.75;;;;;;;;;;4958668;28;21261;-75
2023/01/28 12:59:38;;;;;;;63.15;24.27;;;;;;;;;;4944993;28;20101;-71
2023/01/28 13:05:07;;;;;;;56.33;23.80;;;;;;;;;;4964564;28;20045;-72
2023/01/28 13:07:48;;;;;;;55.17;22.80;;;;;;;;;;4962343;28;20042;-73
2023/01/28 13:10:16;;;;;;;52.70;23.33;;;;;;;;;;4960412;28;20045;-74
2023/01/28 13:12:41;;;;;;;50.83;22.60;;;;;;;;;;4983434;28;20076;-74
2023/01/28 13:15:14;;;;;;;57.17;22.95;;;;;;;;;;5008438;28;20211;-74
2023/01/28 13:17:52;;;;;;;53.47;21.35;;;;;;;;;;5023296;28;20037;-74
2023/01/28 13:20:29;;;;;;;50.13;20.55;;;;;;;;;;4997702;28;20035;-74
2023/01/28 13:23:02;;;;;;;44.45;19.67;;;;;;;;;;5004450;28;20032;-73
2023/01/28 13:25:27;;;;;;;49.83;21.33;;;;;;;;;;5004285;28;20108;-73
2023/01/28 13:28:02;;;;;;;54.67;22.60;;;;;;;;;;5003676;28;20104;-76
2023/01/28 13:30:29;;;;;;;49.65;21.70;;;;;;;;;;5003582;28;20501;-75
2023/01/28 13:32:56;;;;;;;45.97;19.95;;;;;;;;;;5023223;28;20458;-71
2023/01/28 13:38:23;;;;;;;45.22;19.63;;;;;;;;;;5005529;28;20069;-72
2023/01/28 13:40:55;;;;;;;45.40;20.00;;;;;;;;;;5004460;28;20028;-72
2023/01/28 13:43:26;;;;;;;46.17;20.48;;;;;;;;;;5007148;28;20022;-72
2023/01/28 13:45:55;;;;;;;44.85;19.73;;;;;;;;;;5003898;28;20453;-72
2023/01/28 13:48:31;;;;;;;47.88;19.88;;;;;;;;;;5016252;28;20030;-72
2023/01/28 13:50:58;;;;;;;45.88;20.10;;;;;;;;;;5004630;28;20025;-70
2023/01/28 13:53:42;;;;;;;42.75;20.33;;;;;;;;;;5003008;28;20456;-70
2023/01/28 13:56:16;;;;;;;51.47;21.25;;;;;;;;;;5005544;28;20904;-71
2023/01/28 13:58:41;;;;;;;51.20;21.45;;;;;;;;;;5009517;28;20041;-70
2023/01/28 14:01:15;;;;;;;52.77;23.13;;;;;;;;;;5005296;28;20030;-70
2023/01/28 14:03:45;;;;;;;53.88;22.92;;;;;;;;;;5001580;28;20032;-70
2023/01/28 14:06:10;;;;;;;50.13;21.52;;;;;;;;;;5005552;28;20033;-70
2023/01/28 14:08:51;;;;;;;45.20;21.33;;;;;;;;;;5003011;28;20065;-70
2023/01/28 14:11:35;;;;;;;53.35;22.85;;;;;;;;;;5002768;28;20025;-69
2023/01/28 14:14:19;;;;;;;51.15;22.15;;;;;;;;;;5019228;28;20046;-70
2023/01/28 14:16:50;;;;;;;52.47;22.20;;;;;;;;;;5003118;28;20037;-70
2023/01/28 14:19:18;;;;;;;58.00;22.23;;;;;;;;;;5005059;28;20022;-70
2023/01/28 14:21:43;;;;;;;52.03;23.83;;;;;;;;;;5001777;28;20551;-70
2023/01/28 14:24:16;;;;;;;53.85;23.52;;;;;;;;;;5001600;28;20084;-70
2023/01/28 14:26:48;;;;;;;50.17;23.05;;;;;;;;;;5002663;28;20110;-70
2023/01/28 14:29:13;;;;;;;49.63;22.13;;;;;;;;;;5001780;28;20034;-70
2023/01/28 14:31:38;;;;;;;55.73;24.13;;;;;;;;;;5005709;28;20026;-70
2023/01/28 14:34:18;;;;;;;51.05;22.08;;;;;;;;;;5005242;28;20291;-70
2023/01/28 14:36:47;;;;;;;50.30;22.52;;;;;;;;;;5006344;28;20088;-70
2023/01/28 14:39:17;;;;;;;47.58;22.85;;;;;;;;;;5004244;28;20668;-70
2023/01/28 14:41:42;;;;;;;;;;;;;;;;;;5004373;28;20083;-70
2023/01/28 14:44:08;;;;;;;54.10;21.73;;;;;;;;;;5004005;28;19960;-70
2023/01/28 14:46:40;;;;;;;51.50;22.95;;;;;;;;;;5005331;28;20030;-70
2023/01/28 14:49:20;;;;;;;51.92;23.05;;;;;;;;;;5005842;28;20121;-72
2023/01/28 14:52:11;;;;;;;51.17;22.15;;;;;;;;;;5004762;28;20040;-71
2023/01/28 14:54:54;;;;;;;52.30;22.85;;;;;;;;;;5005544;28;20038;-71
2023/01/28 14:57:40;;;;;;;53.78;23.70;;;;;;;;;;5009214;28;20373;-71
2023/01/28 15:00:24;;;;;;;51.28;22.30;;;;;;;;;;5014202;28;20551;-71
2023/01/28 15:02:49;;;;;;;50.38;21.75;;;;;;;;;;5019674;28;20030;-69
2023/01/28 15:05:16;;;;;;;51.40;22.70;;;;;;;;;;5010456;28;20036;-70
2023/01/28 15:07:48;;;;;;;52.00;23.20;;;;;;;;;;5010375;28;20100;-70
2023/01/28 15:13:11;;;;;;;66.70;29.90;;;;;;;;;;5005804;28;20057;-70
2023/01/28 15:15:38;;;;;;;78.10;36.45;;;;;;;;;;5010942;28;20068;-70
2023/01/28 15:18:22;;;;;;;71.63;32.22;;;;;;;;;;5009986;28;21384;-70
2023/01/28 15:20:52;;;;;;;58.97;24.83;;;;;;;;;;5026914;28;20026;-69
2023/01/28 15:23:21;;;;;;;52.08;24.17;;;;;;;;;;5024627;28;20055;-70
2023/01/28 15:25:47;;;;;;;48.22;22.77;;;;;;;;;;5011555;28;20108;-70
2023/01/28 15:28:18;;;;;;;53.22;22.90;;;;;;;;;;5025032;28;20599;-70
2023/01/28 15:30:44;;;;;;;52.63;22.38;;;;;;;;;;5008024;28;20061;-70
2023/01/28 15:33:28;;;;;;;56.20;23.95;;;;;;;;;;5008244;28;20033;-70